Smithfield - 24 Hour Table
Date & TimeSolar
Radiation
(W/m²)
Wind
Speed
(mph)
Wind
Direction
(degrees)
Air
Temperature
(°F)
Relative
Humidity
(%)
Precipitation
(inches)
2017/06/27 01:00 0 4.3 62 70.0 36 0.00
2017/06/27 00:00 0 4.3 17 71.8 39 0.00
2017/06/26 23:00 0 4.3 61 76.5 31 0.00
2017/06/26 22:00 0 6.6 31 80.0 27 0.00
2017/06/26 21:00 0 5.3 12 79.6 27 0.00
2017/06/26 20:00 47 4.8 44 80.3 29 0.00
2017/06/26 19:00 172 2.5 53 85.8 25 0.00
2017/06/26 18:00 357 3.6 165 89.7 19 0.00
2017/06/26 17:00 484 4.6 195 90.2 17 0.00
2017/06/26 16:00 765 4.5 210 90.4 17 0.00
2017/06/26 15:00 721 5.0 220 88.3 21 0.00
2017/06/26 14:00 882 4.0 239 86.3 19 0.00
2017/06/26 13:00 419 4.0 358 79.8 36 0.00
2017/06/26 12:00 484 3.6 315 80.7 32 0.00
2017/06/26 11:00 851 3.7 280 79.0 33 0.00
2017/06/26 10:00 728 2.7 284 74.4 40 0.00
2017/06/26 09:00 564 1.7 215 69.3 47 0.00
2017/06/26 08:00 390 2.2 231 64.1 53 0.00
2017/06/26 07:00 167 1.7 142 60.1 58 0.00
2017/06/26 06:00 14 3.3 67 56.3 65 0.00
2017/06/26 05:00 1 2.5 67 58.6 65 0.00
2017/06/26 04:00 0 3.4 36 60.3 54 0.00
2017/06/26 03:00 0 4.2 57 60.3 47 0.00
2017/06/26 02:00 0 3.1 57 63.6 56 0.00